Terminal Aerodrome Forecast
Issued by NWS Atlanta, GA

Home | Current Version | Previous Version | Text Only | Print | Product List | Glossary On
Versions: 1 2 3 4 5 6 7 8 9 10 11 12 13 14 15 16 17 18 19 20 21 22 23 24 25 26 27 28 29 30 31 32 33 34 35 36 37 38 39
000
FTUS42 KFFC 291125
TAFATL
TAF
KATL 291125Z 2912/3018 30005KT P6SM BKN060
     FM291400 28006KT P6SM SCT060
     FM291700 25008KT P6SM SCT050 SCT250
     FM300200 26005KT P6SM BKN120
     FM301400 24008KT P6SM BKN050 PROB30 3015/3018 -SHRA=

USA.gov is the U.S. government's official web portal to all federal, state and local government web resources and services.